Time;durP1;ratioP1;P1;durP2;ratioP2;P2;SDS_P1;SDS_P2;PMS_P1;PMS_P2;Temp;Humidity;BMP_temperature;BMP_pressure;BME280_temperature;BME280_humidity;BME280_pressure;Samples;Min_cycle;Max_cycle;Signal;HPM_P1;HPM_P2
2023/12/14 00:00:08;;;;;;;4.82;3.22;;;9.80;99.90;;;;;;4997297;28;20230;-69
2023/12/14 00:02:38;;;;;;;4.80;3.25;;;9.80;99.90;;;;;;5005500;28;20214;-69
2023/12/14 00:05:06;;;;;;;4.30;3.28;;;9.80;99.90;;;;;;5012453;28;20176;-69
2023/12/14 00:07:34;;;;;;;4.65;2.92;;;9.80;99.90;;;;;;5010278;28;20195;-69
2023/12/14 00:10:00;;;;;;;4.43;2.85;;;9.80;99.90;;;;;;5014952;28;20277;-69
2023/12/14 00:12:30;;;;;;;4.80;3.05;;;9.80;99.90;;;;;;5014544;28;20194;-70
2023/12/14 00:14:58;;;;;;;5.10;3.30;;;9.80;99.90;;;;;;5002081;28;20278;-68
2023/12/14 00:17:26;;;;;;;6.18;3.35;;;9.70;99.90;;;;;;5002783;28;20256;-69
2023/12/14 00:19:52;;;;;;;5.30;3.22;;;9.70;99.90;;;;;;5015708;28;22133;-69
2023/12/14 00:22:22;;;;;;;4.35;3.22;;;9.70;99.90;;;;;;5014382;28;20270;-68
2023/12/14 00:24:48;;;;;;;4.93;3.08;;;9.70;99.90;;;;;;5015423;28;20171;-70
2023/12/14 00:27:13;;;;;;;4.90;3.30;;;9.70;99.90;;;;;;5011649;28;20179;-69
2023/12/14 00:29:39;;;;;;;4.82;2.85;;;9.70;99.90;;;;;;5006073;28;20262;-69
2023/12/14 00:32:07;;;;;;;5.30;2.97;;;9.60;99.90;;;;;;4997619;28;20183;-69
2023/12/14 00:34:33;;;;;;;5.45;3.30;;;9.60;99.90;;;;;;5008880;28;20181;-69
2023/12/14 00:37:00;;;;;;;5.20;3.45;;;9.60;99.90;;;;;;5010740;28;20179;-69
2023/12/14 00:39:28;;;;;;;7.15;2.83;;;9.60;99.90;;;;;;5014867;28;20179;-69
2023/12/14 00:41:54;;;;;;;5.07;3.13;;;9.60;99.90;;;;;;5004883;28;20225;-69
2023/12/14 00:44:19;;;;;;;5.57;3.40;;;9.60;99.90;;;;;;5010114;28;20171;-69
2023/12/14 00:46:47;;;;;;;3.95;3.25;;;9.60;99.90;;;;;;5011790;28;20171;-69
2023/12/14 00:49:18;;;;;;;6.28;3.63;;;9.60;99.90;;;;;;5011140;28;20196;-71
2023/12/14 00:51:43;;;;;;;5.15;3.60;;;9.70;99.90;;;;;;5014727;28;20174;-68
2023/12/14 00:54:11;;;;;;;5.30;3.55;;;9.70;99.90;;;;;;5016937;28;20438;-70
2023/12/14 00:56:36;;;;;;;5.15;3.47;;;9.70;99.90;;;;;;5014745;28;20183;-69
2023/12/14 00:59:07;;;;;;;5.20;3.90;;;9.70;99.90;;;;;;5014060;28;20179;-69
2023/12/14 01:01:32;;;;;;;4.43;3.50;;;9.70;99.90;;;;;;5012081;28;20289;-69
2023/12/14 01:03:59;;;;;;;5.63;3.75;;;9.70;99.90;;;;;;4996919;28;20275;-69
2023/12/14 01:06:27;;;;;;;5.43;4.10;;;9.80;99.90;;;;;;5007828;28;20178;-69
2023/12/14 01:08:57;;;;;;;5.75;4.38;;;9.80;99.90;;;;;;5013745;28;20199;-69
2023/12/14 01:11:23;;;;;;;5.85;3.88;;;9.80;99.90;;;;;;5010600;28;20198;-69
2023/12/14 01:13:49;;;;;;;6.40;4.13;;;9.70;99.90;;;;;;5006513;28;20285;-69
2023/12/14 01:16:21;;;;;;;5.97;4.47;;;9.80;99.90;;;;;;5013550;28;20217;-69
2023/12/14 01:18:49;;;;;;;5.68;4.18;;;9.80;99.90;;;;;;5012249;28;20294;-69
2023/12/14 01:21:17;;;;;;;5.65;4.10;;;9.80;99.90;;;;;;5013437;28;20271;-69
2023/12/14 01:23:45;;;;;;;5.43;4.45;;;9.90;99.90;;;;;;5014773;28;20285;-69
2023/12/14 01:26:13;;;;;;;6.47;4.60;;;9.90;99.90;;;;;;5010036;28;20179;-69
2023/12/14 01:28:38;;;;;;;6.00;4.65;;;9.90;99.90;;;;;;5012084;28;20226;-69
2023/12/14 01:31:04;;;;;;;5.68;4.82;;;9.90;99.90;;;;;;5012770;28;20264;-69
2023/12/14 01:33:30;;;;;;;7.55;5.45;;;9.90;99.90;;;;;;5002963;28;20197;-69
2023/12/14 01:35:55;;;;;;;8.73;6.40;;;9.90;99.90;;;;;;4997579;28;20203;-69
2023/12/14 01:38:21;;;;;;;9.43;6.60;;;9.90;99.90;;;;;;5011957;28;20179;-69
2023/12/14 01:40:48;;;;;;;13.00;7.90;;;9.90;99.90;;;;;;4994631;28;20262;-69
2023/12/14 01:43:14;;;;;;;10.43;7.38;;;9.90;99.90;;;;;;5012589;28;20199;-69
2023/12/14 01:45:40;;;;;;;13.75;8.57;;;9.90;99.90;;;;;;5013159;28;20179;-69
2023/12/14 01:48:05;;;;;;;15.07;8.70;;;9.90;99.90;;;;;;5013809;28;20175;-69
2023/12/14 01:50:31;;;;;;;15.20;10.23;;;9.80;99.90;;;;;;5013791;28;20253;-69
2023/12/14 01:52:57;;;;;;;13.57;8.90;;;9.80;99.90;;;;;;5007032;28;20505;-69
2023/12/14 01:55:22;;;;;;;14.95;9.10;;;9.80;99.90;;;;;;5010456;28;20191;-69
2023/12/14 01:57:48;;;;;;;16.73;9.80;;;9.70;99.90;;;;;;5004406;28;20207;-69
2023/12/14 02:00:24;;;;;;;16.88;10.57;;;9.70;99.90;;;;;;5016178;28;20288;-69
2023/12/14 02:02:51;;;;;;;16.42;10.70;;;9.70;99.90;;;;;;5007733;28;20513;-69
2023/12/14 02:05:21;;;;;;;19.67;11.30;;;9.70;99.90;;;;;;5017897;28;20206;-69
2023/12/14 02:07:49;;;;;;;18.35;11.10;;;9.70;99.90;;;;;;5017930;28;20171;-69
2023/12/14 02:10:15;;;;;;;20.10;11.88;;;9.70;99.90;;;;;;5015769;28;20233;-69
2023/12/14 02:12:41;;;;;;;21.77;11.88;;;9.70;99.90;;;;;;5006136;28;20179;-69
2023/12/14 02:15:09;;;;;;;23.38;12.60;;;9.70;99.90;;;;;;5017665;28;20193;-69
2023/12/14 02:17:36;;;;;;;22.65;13.38;;;9.60;99.90;;;;;;5005539;28;20225;-69
2023/12/14 02:20:02;;;;;;;23.67;13.68;;;9.60;99.90;;;;;;5014275;28;20541;-69
2023/12/14 02:22:48;;;;;;;22.60;13.10;;;9.60;99.90;;;;;;5004506;28;20186;-69
2023/12/14 02:25:13;;;;;;;21.48;12.57;;;9.60;99.90;;;;;;5010514;28;20194;-69
2023/12/14 02:27:39;;;;;;;23.75;13.45;;;9.60;99.90;;;;;;5013103;28;20179;-68
2023/12/14 02:30:05;;;;;;;25.83;14.05;;;9.70;99.90;;;;;;5008294;28;20179;-68
2023/12/14 02:32:33;;;;;;;26.35;14.55;;;9.60;99.90;;;;;;5010619;28;20203;-68
2023/12/14 02:34:58;;;;;;;25.67;14.60;;;9.60;99.90;;;;;;5012828;28;20273;-68
2023/12/14 02:37:26;;;;;;;25.73;13.38;;;9.60;99.90;;;;;;5012552;28;20420;-68
2023/12/14 02:39:52;;;;;;;27.77;13.82;;;9.70;99.90;;;;;;5014485;28;20185;-68
2023/12/14 02:42:17;;;;;;;26.98;14.10;;;9.60;99.90;;;;;;5016089;28;20170;-67
2023/12/14 02:44:45;;;;;;;25.05;13.68;;;9.60;99.90;;;;;;5014939;28;20252;-67
2023/12/14 02:47:13;;;;;;;25.17;13.93;;;9.60;99.90;;;;;;4999317;28;20179;-67
2023/12/14 02:49:39;;;;;;;31.75;15.80;;;9.60;99.90;;;;;;5030047;28;20175;-67
2023/12/14 02:52:04;;;;;;;27.42;14.27;;;9.60;99.90;;;;;;5017321;28;20257;-67
2023/12/14 02:54:30;;;;;;;26.13;13.48;;;9.60;99.90;;;;;;5019546;28;20318;-72
2023/12/14 02:56:56;;;;;;;27.73;14.45;;;9.60;99.90;;;;;;5003083;28;20175;-71
2023/12/14 02:59:24;;;;;;;25.38;13.95;;;9.60;99.90;;;;;;5013823;28;20203;-72
2023/12/14 03:01:49;;;;;;;26.98;14.80;;;9.60;99.90;;;;;;5014904;28;20206;-72
2023/12/14 03:04:15;;;;;;;25.58;14.55;;;9.70;99.90;;;;;;5016249;28;20210;-71
2023/12/14 03:06:41;;;;;;;28.10;15.48;;;9.60;99.90;;;;;;5016941;28;20178;-72
2023/12/14 03:09:06;;;;;;;26.23;14.38;;;9.70;99.90;;;;;;5015753;28;20181;-70
2023/12/14 03:11:32;;;;;;;28.42;15.25;;;9.60;99.90;;;;;;5015941;28;20244;-72
2023/12/14 03:13:57;;;;;;;28.17;15.15;;;9.60;99.90;;;;;;5016081;28;20261;-71
2023/12/14 03:16:24;;;;;;;31.52;15.60;;;9.70;99.90;;;;;;5005874;28;20190;-71
2023/12/14 03:18:53;;;;;;;31.60;16.10;;;9.70;99.90;;;;;;5014629;28;20453;-70
2023/12/14 03:21:21;;;;;;;26.85;14.80;;;9.70;99.90;;;;;;5015448;28;20215;-71
2023/12/14 03:23:47;;;;;;;28.75;15.60;;;9.60;99.90;;;;;;5011580;28;20261;-71
2023/12/14 03:26:15;;;;;;;26.85;14.57;;;9.70;99.90;;;;;;5013165;28;20288;-70
2023/12/14 03:28:40;;;;;;;26.63;14.70;;;9.70;99.90;;;;;;5015671;28;20175;-72
2023/12/14 03:31:06;;;;;;;28.67;16.13;;;9.70;99.90;;;;;;5014067;28;20210;-71
2023/12/14 03:33:34;;;;;;;30.48;16.15;;;9.70;99.90;;;;;;5016126;28;20208;-68
2023/12/14 03:35:59;;;;;;;31.77;16.58;;;9.80;99.90;;;;;;5009607;28;20197;-71
2023/12/14 03:38:25;;;;;;;29.67;16.17;;;9.70;99.90;;;;;;5014140;28;20175;-72
2023/12/14 03:40:50;;;;;;;24.85;15.15;;;9.70;99.90;;;;;;5014710;28;20202;-69
2023/12/14 03:43:16;;;;;;;27.48;13.50;;;9.70;99.90;;;;;;5005565;28;20183;-70
2023/12/14 03:45:42;;;;;;;26.00;14.48;;;9.80;99.90;;;;;;5014023;28;20175;-70
2023/12/14 03:48:07;;;;;;;25.27;14.13;;;9.80;99.90;;;;;;5008903;28;20190;-71
2023/12/14 03:50:35;;;;;;;23.50;13.13;;;9.80;99.90;;;;;;5011519;28;20198;-71
2023/12/14 03:53:01;;;;;;;28.85;14.57;;;9.80;99.90;;;;;;5008016;28;20218;-70
2023/12/14 03:55:28;;;;;;;26.83;14.75;;;9.80;99.90;;;;;;5006370;28;20193;-70
2023/12/14 03:57:54;;;;;;;26.80;14.82;;;9.80;99.90;;;;;;5001600;28;20176;-71
2023/12/14 04:00:22;;;;;;;25.10;14.45;;;9.80;99.90;;;;;;5001856;28;20219;-71
2023/12/14 04:02:48;;;;;;;27.33;15.50;;;9.80;99.90;;;;;;5002987;28;20233;-72
2023/12/14 04:05:18;;;;;;;25.50;15.05;;;9.80;99.90;;;;;;5012254;28;20179;-70
2023/12/14 04:07:46;;;;;;;24.65;14.57;;;9.80;99.90;;;;;;5011237;28;20199;-69
2023/12/14 04:10:17;;;;;;;25.17;14.43;;;9.80;99.90;;;;;;4995265;28;20179;-69
2023/12/14 04:12:43;;;;;;;24.20;13.88;;;9.70;99.90;;;;;;5009762;28;20183;-69
2023/12/14 04:15:13;;;;;;;22.23;14.05;;;9.70;99.90;;;;;;5007523;28;20190;-70
2023/12/14 04:17:38;;;;;;;22.02;13.73;;;9.70;99.90;;;;;;5001257;28;20187;-71
2023/12/14 04:20:08;;;;;;;23.77;13.98;;;9.70;99.90;;;;;;5010434;28;20211;-71
2023/12/14 04:22:36;;;;;;;22.90;14.48;;;9.60;99.90;;;;;;5006601;28;20171;-71
2023/12/14 04:25:03;;;;;;;20.00;12.95;;;9.60;99.90;;;;;;5002252;28;20183;-71
2023/12/14 04:27:29;;;;;;;19.02;12.23;;;9.60;99.90;;;;;;5015018;28;20183;-71
2023/12/14 04:29:55;;;;;;;20.40;12.93;;;9.60;99.90;;;;;;5014474;28;20209;-70
2023/12/14 04:32:23;;;;;;;20.50;12.85;;;9.50;99.90;;;;;;5005846;28;20210;-70
2023/12/14 04:34:48;;;;;;;20.70;12.27;;;9.50;99.90;;;;;;5011818;28;20202;-71
2023/12/14 04:37:14;;;;;;;18.15;11.60;;;9.50;99.90;;;;;;5006570;28;20171;-71
2023/12/14 04:39:42;;;;;;;18.88;11.80;;;9.40;99.90;;;;;;5006598;28;20171;-70
2023/12/14 04:42:08;;;;;;;19.17;12.45;;;9.50;99.90;;;;;;5011160;28;20207;-71
2023/12/14 04:44:34;;;;;;;23.02;14.13;;;9.50;99.90;;;;;;5023199;28;20282;-70
2023/12/14 04:47:04;;;;;;;21.85;12.75;;;9.50;99.90;;;;;;5013843;28;20184;-71
2023/12/14 04:49:30;;;;;;;23.93;14.30;;;9.40;99.90;;;;;;5014322;28;20198;-71
2023/12/14 04:51:55;;;;;;;23.03;13.00;;;9.40;99.90;;;;;;5010352;28;20214;-71
2023/12/14 04:54:23;;;;;;;20.95;13.52;;;9.40;99.90;;;;;;5014082;28;20202;-71
2023/12/14 04:56:49;;;;;;;19.52;13.27;;;9.30;99.90;;;;;;5016125;28;20266;-70
2023/12/14 04:59:19;;;;;;;20.20;12.48;;;9.30;99.90;;;;;;5021605;28;20278;-71
2023/12/14 05:01:44;;;;;;;18.88;11.88;;;9.30;99.90;;;;;;5012461;28;20206;-71
2023/12/14 05:04:10;;;;;;;18.15;11.50;;;9.30;99.90;;;;;;5012041;28;20186;-70
2023/12/14 05:06:37;;;;;;;15.93;11.40;;;9.30;99.90;;;;;;5014076;28;20185;-71
2023/12/14 05:09:05;;;;;;;15.15;10.63;;;9.20;99.90;;;;;;5013918;28;20201;-71
2023/12/14 05:11:30;;;;;;;15.77;10.15;;;9.20;99.90;;;;;;5014533;28;20170;-72
2023/12/14 05:13:56;;;;;;;14.63;10.65;;;9.20;99.90;;;;;;5008643;28;20201;-71
2023/12/14 05:16:26;;;;;;;15.90;11.43;;;9.20;99.90;;;;;;5012427;28;20187;-71
2023/12/14 05:18:52;;;;;;;14.77;10.38;;;9.20;99.90;;;;;;5014782;28;20240;-72
2023/12/14 05:21:21;;;;;;;14.35;10.27;;;9.20;99.90;;;;;;5014307;28;20205;-71
2023/12/14 05:23:47;;;;;;;15.02;10.38;;;9.20;99.90;;;;;;5014619;28;20282;-68
2023/12/14 05:26:13;;;;;;;14.85;10.38;;;9.10;99.90;;;;;;5013787;28;20197;-69
2023/12/14 05:28:38;;;;;;;14.25;10.82;;;9.10;99.90;;;;;;5014591;28;20217;-71
2023/12/14 05:31:04;;;;;;;15.18;10.50;;;9.10;99.90;;;;;;5014573;28;20174;-68
2023/12/14 05:33:31;;;;;;;13.98;10.50;;;9.10;99.90;;;;;;5013858;28;20248;-71
2023/12/14 05:35:57;;;;;;;17.70;11.75;;;9.10;99.90;;;;;;5012148;28;20273;-69
2023/12/14 05:38:22;;;;;;;17.48;11.45;;;9.10;99.90;;;;;;5027473;28;20266;-66
2023/12/14 05:40:50;;;;;;;16.33;10.90;;;9.10;99.90;;;;;;5012453;28;20203;-70
2023/12/14 05:43:18;;;;;;;14.82;11.32;;;9.20;99.90;;;;;;5012207;28;20193;-70
2023/12/14 05:45:49;;;;;;;15.60;10.52;;;9.10;99.90;;;;;;5010082;28;20197;-72
2023/12/14 05:48:19;;;;;;;16.63;11.52;;;9.10;99.90;;;;;;5011261;28;20174;-71
2023/12/14 05:50:45;;;;;;;20.30;12.75;;;9.10;99.90;;;;;;5008248;28;20174;-71
2023/12/14 05:53:12;;;;;;;22.02;14.52;;;9.10;99.90;;;;;;5025815;28;20259;-70
2023/12/14 05:55:41;;;;;;;26.58;15.98;;;9.10;99.90;;;;;;5006372;28;20199;-72
2023/12/14 05:58:09;;;;;;;27.27;17.45;;;9.10;99.90;;;;;;5014113;28;20206;-70
2023/12/14 06:00:35;;;;;;;26.27;17.25;;;9.10;99.90;;;;;;5014267;28;20276;-71
2023/12/14 06:03:02;;;;;;;31.63;18.17;;;9.10;99.90;;;;;;5005636;28;20282;-71
2023/12/14 06:05:27;;;;;;;28.10;16.33;;;9.10;99.90;;;;;;4994513;28;20171;-71
2023/12/14 06:07:53;;;;;;;31.30;18.73;;;9.00;99.90;;;;;;5010071;28;20187;-70
2023/12/14 06:10:19;;;;;;;29.47;17.93;;;9.00;99.90;;;;;;5013336;28;20273;-71
2023/12/14 06:12:45;;;;;;;26.40;16.27;;;9.00;99.90;;;;;;5012914;28;20225;-71
2023/12/14 06:15:13;;;;;;;27.47;16.93;;;8.90;99.90;;;;;;5011973;28;20354;-71
2023/12/14 06:17:42;;;;;;;31.23;17.97;;;8.90;99.90;;;;;;5012364;28;20195;-70
2023/12/14 06:20:11;;;;;;;30.37;17.33;;;8.90;99.90;;;;;;5013531;28;20206;-71
2023/12/14 06:22:39;;;;;;;39.97;20.92;;;8.80;99.90;;;;;;5013942;28;20230;-71
2023/12/14 06:25:05;;;;;;;35.93;20.77;;;8.80;99.90;;;;;;5014066;28;20198;-71
2023/12/14 06:27:33;;;;;;;35.00;20.00;;;8.80;99.90;;;;;;5013963;28;20175;-71
2023/12/14 06:29:59;;;;;;;34.40;18.60;;;8.80;99.90;;;;;;5012070;28;20210;-70
2023/12/14 06:32:24;;;;;;;32.23;18.20;;;8.70;99.90;;;;;;5014363;28;20175;-71
2023/12/14 06:34:50;;;;;;;30.47;17.63;;;8.70;99.90;;;;;;5016824;28;20175;-71
2023/12/14 06:37:16;;;;;;;39.97;19.70;;;8.70;99.90;;;;;;5016647;28;20195;-68
2023/12/14 06:39:42;;;;;;;39.33;21.40;;;8.70;99.90;;;;;;5016968;28;20175;-69
2023/12/14 06:42:08;;;;;;;36.10;21.23;;;8.70;99.90;;;;;;5016491;28;20210;-69
2023/12/14 06:44:33;;;;;;;36.60;20.83;;;8.70;99.90;;;;;;5016450;28;20266;-70
2023/12/14 06:46:59;;;;;;;31.80;19.57;;;8.60;99.90;;;;;;5016885;28;20240;-67
2023/12/14 06:49:25;;;;;;;34.23;20.40;;;8.60;99.90;;;;;;5016692;28;20198;-71
2023/12/14 06:51:51;;;;;;;33.27;20.13;;;8.60;99.90;;;;;;5016675;28;20190;-71
2023/12/14 06:54:17;;;;;;;32.80;19.77;;;8.50;99.90;;;;;;5016344;28;20240;-71
2023/12/14 06:56:43;;;;;;;39.37;22.10;;;8.60;99.90;;;;;;5016202;28;20234;-69
2023/12/14 06:59:08;;;;;;;33.05;19.90;;;8.50;99.90;;;;;;5016474;28;20182;-71
2023/12/14 07:01:34;;;;;;;35.10;20.07;;;8.50;99.90;;;;;;5016487;28;20234;-72
2023/12/14 07:04:00;;;;;;;31.70;18.73;;;8.50;99.90;;;;;;5016653;28;20208;-69
2023/12/14 07:06:26;;;;;;;39.00;20.83;;;8.50;99.90;;;;;;5016234;28;20174;-71
2023/12/14 07:08:51;;;;;;;38.23;22.37;;;8.40;99.90;;;;;;5015702;28;20185;-69
2023/12/14 07:11:19;;;;;;;32.30;19.63;;;8.40;99.90;;;;;;5016181;28;20170;-72
2023/12/14 07:13:49;;;;;;;32.23;18.70;;;8.40;99.90;;;;;;5016416;28;20178;-72
2023/12/14 07:16:18;;;;;;;32.90;18.40;;;8.40;99.90;;;;;;5015503;28;20352;-71
2023/12/14 07:18:44;;;;;;;31.90;17.83;;;8.30;99.90;;;;;;5016056;28;20199;-72
2023/12/14 07:21:10;;;;;;;32.67;18.97;;;8.40;99.90;;;;;;5016115;28;20208;-68
2023/12/14 07:23:37;;;;;;;33.27;18.63;;;8.30;99.90;;;;;;5015884;28;20195;-71
2023/12/14 07:26:05;;;;;;;31.07;18.27;;;8.30;99.90;;;;;;5015608;28;20217;-71
2023/12/14 07:28:31;;;;;;;34.67;18.70;;;8.30;99.90;;;;;;5016081;28;20189;-71
2023/12/14 07:30:56;;;;;;;33.10;18.07;;;8.30;99.90;;;;;;5015790;28;20202;-71
2023/12/14 07:33:24;;;;;;;34.90;19.40;;;8.20;99.90;;;;;;5015745;28;20185;-69
2023/12/14 07:35:50;;;;;;;30.13;16.97;;;8.20;99.90;;;;;;5016002;28;20182;-71
2023/12/14 07:38:16;;;;;;;32.77;17.10;;;8.20;99.90;;;;;;5015635;28;20248;-72
2023/12/14 07:40:42;;;;;;;31.80;17.97;;;8.20;99.90;;;;;;5015757;28;20262;-71
2023/12/14 07:43:10;;;;;;;32.67;17.73;;;8.20;99.90;;;;;;5015232;28;20175;-68
2023/12/14 07:45:35;;;;;;;27.30;15.20;;;8.20;99.90;;;;;;5015662;28;20321;-70
2023/12/14 07:48:03;;;;;;;25.80;14.50;;;8.20;99.90;;;;;;5015548;28;20190;-71
2023/12/14 07:50:34;;;;;;;25.67;14.43;;;8.20;99.90;;;;;;5015415;28;20202;-69
2023/12/14 07:53:02;;;;;;;23.57;13.87;;;8.30;99.90;;;;;;5015637;28;20194;-71
2023/12/14 07:55:30;;;;;;;24.30;13.53;;;8.10;99.90;;;;;;5015690;28;20186;-71
2023/12/14 07:58:01;;;;;;;22.67;13.57;;;8.10;99.90;;;;;;5015326;28;20198;-71
2023/12/14 08:00:28;;;;;;;25.47;13.97;;;8.10;99.90;;;;;;5015253;28;20198;-71
2023/12/14 08:02:54;;;;;;;22.23;12.80;;;8.10;99.90;;;;;;5003691;28;20175;-71
2023/12/14 08:05:22;;;;;;;23.77;13.17;;;8.20;99.90;;;;;;5015198;28;20209;-71
2023/12/14 08:07:48;;;;;;;22.63;13.00;;;8.10;99.90;;;;;;5015237;28;20174;-70
2023/12/14 08:10:13;;;;;;;22.03;11.90;;;8.10;99.90;;;;;;5014948;28;20189;-70
2023/12/14 08:12:42;;;;;;;23.30;12.33;;;8.20;99.90;;;;;;5014770;28;20181;-70
2023/12/14 08:15:11;;;;;;;33.07;15.47;;;8.20;99.90;;;;;;5014949;28;20183;-70
2023/12/14 08:17:37;;;;;;;26.53;13.53;;;8.10;99.90;;;;;;5015185;28;20186;-71
2023/12/14 08:20:08;;;;;;;33.47;16.47;;;8.10;99.90;;;;;;5014921;28;20179;-69
2023/12/14 08:22:37;;;;;;;34.80;16.37;;;8.10;99.90;;;;;;4995616;28;20178;-71
2023/12/14 08:25:03;;;;;;;36.77;17.43;;;8.10;99.90;;;;;;5013030;28;20195;-71
2023/12/14 08:27:29;;;;;;;35.20;16.57;;;8.10;99.90;;;;;;5015156;28;20182;-71
2023/12/14 08:29:54;;;;;;;31.27;15.13;;;8.00;99.90;;;;;;5014936;28;20171;-69
2023/12/14 08:32:27;;;;;;;31.00;15.47;;;8.00;99.90;;;;;;5014311;28;20280;-71
2023/12/14 08:34:53;;;;;;;31.50;16.77;;;8.00;99.90;;;;;;5014755;28;20229;-71
2023/12/14 08:37:23;;;;;;;30.13;14.87;;;8.00;99.90;;;;;;5014671;28;20206;-67
2023/12/14 08:39:49;;;;;;;29.60;14.77;;;7.90;99.90;;;;;;5014621;28;20163;-70
2023/12/14 08:42:15;;;;;;;24.87;12.40;;;7.90;99.90;;;;;;5014426;28;20214;-69
2023/12/14 08:44:43;;;;;;;22.43;12.00;;;7.90;99.90;;;;;;5014525;28;20237;-69
2023/12/14 08:47:11;;;;;;;24.20;12.73;;;7.90;99.90;;;;;;5014562;28;20174;-70
2023/12/14 08:49:41;;;;;;;23.73;12.70;;;7.90;99.90;;;;;;5014415;28;20187;-71
2023/12/14 08:52:11;;;;;;;18.97;10.63;;;7.90;99.90;;;;;;5014280;28;20301;-70
2023/12/14 08:54:39;;;;;;;21.97;11.83;;;7.90;99.90;;;;;;5009458;28;20182;-70
2023/12/14 08:57:05;;;;;;;22.47;12.60;;;7.90;99.90;;;;;;5013989;28;20186;-70
2023/12/14 08:59:31;;;;;;;21.47;12.03;;;7.90;99.90;;;;;;5014457;28;20287;-71
2023/12/14 09:01:56;;;;;;;19.50;10.63;;;7.90;99.90;;;;;;5013975;28;20202;-71
2023/12/14 09:04:22;;;;;;;19.53;10.67;;;7.90;99.90;;;;;;4997910;28;20179;-71
2023/12/14 09:06:51;;;;;;;17.03;9.83;;;7.90;99.90;;;;;;5018946;28;20206;-70
2023/12/14 09:09:19;;;;;;;19.57;10.83;;;7.80;99.90;;;;;;4998690;28;20197;-71
2023/12/14 09:11:45;;;;;;;18.73;10.07;;;7.90;99.90;;;;;;5013616;28;20257;-71
2023/12/14 09:14:10;;;;;;;17.50;9.27;;;7.90;99.90;;;;;;5014367;28;20221;-71
2023/12/14 09:16:36;;;;;;;16.93;9.97;;;8.00;99.90;;;;;;5014027;28;20183;-70
2023/12/14 09:19:02;;;;;;;19.10;10.07;;;7.90;99.90;;;;;;5014081;28;20222;-71
2023/12/14 09:21:27;;;;;;;17.77;10.00;;;7.90;99.90;;;;;;5013895;28;20226;-71
2023/12/14 09:23:55;;;;;;;16.50;9.33;;;8.00;99.90;;;;;;5013853;28;20181;-71
2023/12/14 09:26:21;;;;;;;15.80;9.40;;;7.90;99.90;;;;;;5015356;28;20199;-67
2023/12/14 09:28:46;;;;;;;17.30;9.87;;;7.90;99.90;;;;;;5014002;28;20174;-71
2023/12/14 09:31:15;;;;;;;15.80;8.90;;;8.00;99.90;;;;;;5014097;28;20186;-66
2023/12/14 09:33:41;;;;;;;15.53;9.07;;;8.00;99.90;;;;;;5013851;28;20281;-71
2023/12/14 09:36:09;;;;;;;16.17;8.87;;;8.00;99.90;;;;;;5013881;28;20274;-71
2023/12/14 09:38:38;;;;;;;16.07;9.33;;;8.00;99.90;;;;;;5013697;28;20175;-71
2023/12/14 09:41:04;;;;;;;15.03;8.80;;;7.90;99.90;;;;;;5013689;28;20205;-70
2023/12/14 09:43:35;;;;;;;16.93;10.20;;;8.00;99.90;;;;;;5000826;28;20202;-72
2023/12/14 09:46:02;;;;;;;14.93;9.07;;;8.00;99.90;;;;;;5004644;28;20199;-68
2023/12/14 09:48:29;;;;;;;13.77;8.03;;;7.90;99.90;;;;;;5013683;28;20202;-71
2023/12/14 09:50:58;;;;;;;14.07;8.50;;;7.90;99.90;;;;;;5013851;28;20178;-71
2023/12/14 09:53:26;;;;;;;12.70;7.97;;;7.90;99.90;;;;;;5013903;28;20222;-72
2023/12/14 09:55:51;;;;;;;13.23;7.93;;;7.90;99.90;;;;;;5013621;28;20178;-73
2023/12/14 09:58:17;;;;;;;13.27;7.87;;;7.80;99.90;;;;;;5013466;28;20194;-71
2023/12/14 10:00:45;;;;;;;11.93;8.07;;;7.90;99.90;;;;;;5013532;28;20289;-72
2023/12/14 10:03:32;;;;;;;16.23;8.83;;;7.80;99.90;;;;;;4994387;28;20195;-71
2023/12/14 10:06:01;;;;;;;12.13;7.50;;;7.80;99.90;;;;;;4995443;28;20258;-72
2023/12/14 10:08:27;;;;;;;11.33;7.13;;;7.80;99.90;;;;;;5015104;28;20416;-72
2023/12/14 10:10:55;;;;;;;11.30;7.07;;;7.80;99.90;;;;;;5016738;28;20182;-70
2023/12/14 10:13:36;;;;;;;11.40;7.57;;;7.70;99.90;;;;;;5017536;28;20213;-71
2023/12/14 10:16:05;;;;;;;11.33;7.30;;;7.70;99.90;;;;;;4998402;28;20190;-72
2023/12/14 10:18:34;;;;;;;12.43;7.80;;;7.70;99.90;;;;;;4997736;28;20202;-72
2023/12/14 10:20:59;;;;;;;11.83;7.90;;;7.70;99.90;;;;;;5016371;28;20202;-70
2023/12/14 10:23:27;;;;;;;13.73;8.87;;;7.70;99.90;;;;;;5017220;28;20344;-72
2023/12/14 10:25:55;;;;;;;13.90;8.13;;;7.60;99.90;;;;;;5017493;28;20265;-72
2023/12/14 10:28:24;;;;;;;12.67;7.87;;;7.60;99.90;;;;;;5017236;28;20234;-70
2023/12/14 10:30:52;;;;;;;13.10;8.37;;;7.50;99.90;;;;;;5017103;28;20175;-71
2023/12/14 10:33:18;;;;;;;15.57;9.40;;;7.70;99.90;;;;;;5016778;28;20210;-68
2023/12/14 10:35:46;;;;;;;13.93;8.70;;;7.60;99.90;;;;;;5017006;28;20175;-70
2023/12/14 10:38:14;;;;;;;14.57;8.93;;;7.60;99.90;;;;;;5016939;28;20179;-71
2023/12/14 10:40:46;;;;;;;15.50;9.27;;;7.60;99.90;;;;;;5016670;28;20210;-70
2023/12/14 10:43:15;;;;;;;15.77;9.63;;;7.60;99.90;;;;;;5016960;28;20179;-69
2023/12/14 10:45:43;;;;;;;16.87;10.57;;;7.50;99.90;;;;;;5016877;28;20233;-72
2023/12/14 10:48:13;;;;;;;15.80;9.73;;;7.50;99.90;;;;;;5016878;28;20202;-71
2023/12/14 10:50:42;;;;;;;15.27;9.10;;;7.50;99.90;;;;;;5029991;28;20188;-71
2023/12/14 10:53:08;;;;;;;15.90;9.93;;;7.60;99.90;;;;;;4997262;28;20187;-72
2023/12/14 10:55:40;;;;;;;15.77;9.27;;;7.50;99.90;;;;;;5007493;28;20244;-70
2023/12/14 10:58:08;;;;;;;17.00;11.10;;;7.70;99.90;;;;;;5016854;28;20163;-70
2023/12/14 11:00:36;;;;;;;16.80;10.37;;;7.50;99.90;;;;;;5016614;28;20259;-70
2023/12/14 11:03:06;;;;;;;13.27;8.90;;;7.50;99.90;;;;;;5016095;28;20267;-70
2023/12/14 11:05:33;;;;;;;15.07;9.30;;;7.50;99.90;;;;;;5016773;28;20182;-72
2023/12/14 11:08:09;;;;;;;14.83;9.33;;;7.50;99.90;;;;;;5017153;28;20336;-66
2023/12/14 11:10:45;;;;;;;14.20;9.10;;;7.50;99.90;;;;;;5016685;28;20201;-66
2023/12/14 11:13:14;;;;;;;16.37;10.80;;;7.50;99.90;;;;;;5016630;28;20186;-65
2023/12/14 11:15:52;;;;;;;16.97;10.60;;;7.40;99.90;;;;;;5016472;28;20221;-66
2023/12/14 11:18:17;;;;;;;15.07;9.93;;;7.40;99.90;;;;;;4996439;28;20194;-65
2023/12/14 11:20:46;;;;;;;14.17;9.93;;;7.40;99.90;;;;;;5006694;28;20213;-66
2023/12/14 11:23:19;;;;;;;15.13;10.00;;;7.40;99.90;;;;;;5017594;28;20171;-65
2023/12/14 11:25:49;;;;;;;17.13;11.03;;;7.30;99.90;;;;;;5018704;28;20183;-66
2023/12/14 11:28:15;;;;;;;17.10;11.33;;;7.30;99.90;;;;;;5015900;28;20198;-65
2023/12/14 11:30:44;;;;;;;16.03;10.83;;;7.30;99.90;;;;;;5015795;28;20193;-66
2023/12/14 11:33:11;;;;;;;21.27;12.57;;;7.30;99.90;;;;;;5016066;28;20197;-65
2023/12/14 11:35:39;;;;;;;19.50;11.77;;;7.30;99.90;;;;;;5015855;28;20212;-65
2023/12/14 11:38:10;;;;;;;17.47;11.77;;;7.30;99.90;;;;;;5015972;28;20519;-66
2023/12/14 11:40:45;;;;;;;15.43;10.37;;;7.20;99.90;;;;;;5016972;28;20285;-65
2023/12/14 11:43:16;;;;;;;16.70;10.63;;;7.30;99.90;;;;;;5015974;28;20189;-65
2023/12/14 11:45:49;;;;;;;19.17;12.40;;;7.40;99.90;;;;;;5015679;28;20217;-65
2023/12/14 11:48:17;;;;;;;19.67;12.07;;;7.30;99.90;;;;;;5015729;28;20220;-65
2023/12/14 11:50:43;;;;;;;19.00;12.00;;;7.30;99.90;;;;;;5011792;28;20183;-65
2023/12/14 11:53:09;;;;;;;24.23;13.40;;;7.40;99.90;;;;;;5015475;28;20171;-65
2023/12/14 11:55:38;;;;;;;25.13;14.70;;;7.40;99.90;;;;;;5015496;28;20265;-66
2023/12/14 11:58:04;;;;;;;22.07;12.50;;;7.40;99.90;;;;;;5015344;28;20236;-65
2023/12/14 12:00:31;;;;;;;22.07;13.70;;;7.40;99.90;;;;;;5015652;28;20269;-65
2023/12/14 12:03:12;;;;;;;18.50;12.57;;;7.40;99.90;;;;;;5015209;28;20249;-64
2023/12/14 12:05:42;;;;;;;17.73;11.30;;;7.40;99.90;;;;;;5013227;28;20174;-64
2023/12/14 12:08:12;;;;;;;16.80;10.93;;;7.50;99.90;;;;;;5015537;28;20225;-64
2023/12/14 12:10:39;;;;;;;16.10;10.43;;;7.50;99.90;;;;;;5015251;28;20186;-64
2023/12/14 12:13:07;;;;;;;18.23;11.20;;;7.50;99.90;;;;;;5015114;28;20202;-65
2023/12/14 12:15:38;;;;;;;21.77;12.57;;;7.50;99.90;;;;;;5014831;28;20382;-65
2023/12/14 12:18:05;;;;;;;20.00;11.90;;;7.60;99.90;;;;;;5015091;28;20282;-64
2023/12/14 12:20:32;;;;;;;16.57;10.60;;;7.50;99.90;;;;;;5015293;28;20244;-64
2023/12/14 12:22:58;;;;;;;18.03;11.63;;;7.60;99.90;;;;;;5015190;28;20342;-64
2023/12/14 12:25:24;;;;;;;16.53;10.70;;;7.60;99.90;;;;;;5015339;28;20209;-65
2023/12/14 12:27:49;;;;;;;14.33;9.63;;;7.50;99.90;;;;;;5015187;28;20175;-64
2023/12/14 12:30:15;;;;;;;15.67;10.33;;;7.60;99.90;;;;;;5013946;28;20194;-65
2023/12/14 12:32:41;;;;;;;13.87;9.17;;;7.60;99.90;;;;;;5014880;28;20218;-65
2023/12/14 12:35:08;;;;;;;14.27;9.70;;;7.60;99.90;;;;;;5014953;28;20196;-65
2023/12/14 12:37:34;;;;;;;13.23;9.37;;;7.60;99.90;;;;;;5015000;28;20182;-65
2023/12/14 12:39:59;;;;;;;14.00;9.47;;;7.60;99.90;;;;;;5014817;28;20174;-65